createdAt,value
2023-01-08T00:01:33.229Z,51.63
2023-01-08T00:04:02.993Z,52.80
2023-01-08T00:06:29.763Z,54.95
2023-01-08T00:08:59.501Z,57.28
2023-01-08T00:11:26.644Z,54.72
2023-01-08T00:13:53.491Z,52.83
2023-01-08T00:16:20.497Z,55.03
2023-01-08T00:18:49.756Z,58.05
2023-01-08T00:21:20.874Z,42.10
2023-01-08T00:23:50.426Z,50.77
2023-01-08T00:26:20.094Z,50.72
2023-01-08T00:28:46.777Z,51.33
2023-01-08T00:34:01.308Z,51.53
2023-01-08T00:36:27.887Z,48.88
2023-01-08T00:39:00.938Z,58.00
2023-01-08T00:41:30.641Z,55.15
2023-01-08T00:44:09.644Z,49.75
2023-01-08T00:46:50.098Z,57.72
2023-01-08T00:49:24.363Z,55.53
2023-01-08T00:51:51.445Z,43.50
2023-01-08T00:54:18.079Z,48.92
2023-01-08T00:56:44.736Z,51.88
2023-01-08T00:59:11.451Z,52.95
2023-01-08T01:01:39.221Z,54.60
2023-01-08T01:04:05.831Z,42.88
2023-01-08T01:06:32.498Z,48.72
2023-01-08T01:08:59.188Z,50.55
2023-01-08T01:11:31.101Z,50.20
2023-01-08T01:13:58.152Z,54.90
2023-01-08T01:16:30.790Z,51.75
2023-01-08T01:18:57.728Z,51.45
2023-01-08T01:21:31.659Z,54.67
2023-01-08T01:24:00.719Z,52.58
2023-01-08T01:26:28.581Z,54.17
2023-01-08T01:28:58.377Z,39.75
2023-01-08T01:31:27.482Z,52.20
2023-01-08T01:34:01.826Z,48.33
2023-01-08T01:36:37.935Z,59.00
2023-01-08T01:39:05.370Z,52.70
2023-01-08T01:41:49.669Z,51.15
2023-01-08T01:44:45.203Z,55.45
2023-01-08T01:47:20.407Z,51.88
2023-01-08T01:50:02.997Z,54.63
2023-01-08T01:52:33.391Z,53.53
2023-01-08T01:55:09.932Z,48.42
2023-01-08T01:57:38.405Z,56.22
2023-01-08T02:00:09.622Z,50.97
2023-01-08T02:02:36.383Z,57.55
2023-01-08T02:05:03.449Z,53.72
2023-01-08T02:07:47.114Z,56.92
2023-01-08T02:10:24.733Z,45.00
2023-01-08T02:13:04.735Z,56.50
2023-01-08T02:15:50.150Z,55.72
2023-01-08T02:18:21.002Z,53.35
2023-01-08T02:21:05.118Z,56.75
2023-01-08T02:23:37.552Z,62.67
2023-01-08T02:26:15.493Z,57.67
2023-01-08T02:29:08.019Z,49.58
2023-01-08T02:31:46.150Z,51.35
2023-01-08T02:34:13.891Z,52.92
2023-01-08T02:36:46.141Z,49.17
2023-01-08T02:39:28.329Z,46.05
2023-01-08T02:45:17.453Z,50.28
2023-01-08T02:47:51.584Z,49.10
2023-01-08T02:50:41.882Z,51.88
2023-01-08T02:53:18.365Z,48.95
2023-01-08T02:56:09.486Z,49.38
2023-01-08T02:58:38.417Z,50.78
2023-01-08T03:01:10.954Z,48.78
2023-01-08T03:03:42.028Z,49.60
2023-01-08T03:06:16.906Z,52.38
2023-01-08T03:08:48.653Z,53.53
2023-01-08T03:11:30.109Z,46.30
2023-01-08T03:14:17.865Z,55.47
2023-01-08T03:16:51.067Z,50.17
2023-01-08T03:19:32.958Z,48.70
2023-01-08T03:22:02.570Z,45.65
2023-01-08T03:24:37.281Z,50.28
2023-01-08T03:27:12.031Z,51.13
2023-01-08T03:29:43.648Z,51.20
2023-01-08T03:32:15.303Z,51.92
2023-01-08T03:34:47.267Z,50.28
2023-01-08T03:40:04.292Z,46.17
2023-01-08T03:42:34.331Z,50.88
2023-01-08T03:45:01.807Z,48.00
2023-01-08T03:47:32.361Z,51.80
2023-01-08T03:50:03.024Z,51.83
2023-01-08T03:52:35.748Z,51.45
2023-01-08T03:55:02.608Z,56.67
2023-01-08T03:57:29.408Z,50.28
2023-01-08T03:59:57.379Z,55.05
2023-01-08T04:02:24.650Z,50.42
2023-01-08T04:04:51.472Z,52.03
2023-01-08T04:07:18.435Z,53.22
2023-01-08T04:09:45.091Z,51.03
2023-01-08T04:12:12.973Z,52.38
2023-01-08T04:14:39.651Z,47.67
2023-01-08T04:17:09.278Z,61.67
2023-01-08T04:19:36.147Z,54.13
2023-01-08T04:22:08.862Z,51.25
2023-01-08T04:24:35.660Z,51.97
2023-01-08T04:27:02.316Z,48.97
2023-01-08T04:29:31.687Z,55.38
2023-01-08T04:32:00.806Z,47.67
2023-01-08T04:34:27.484Z,49.42
2023-01-08T04:36:54.207Z,53.47
2023-01-08T04:39:28.517Z,50.35
2023-01-08T04:41:55.105Z,51.58
2023-01-08T04:44:21.757Z,52.50
2023-01-08T04:46:48.529Z,51.88
2023-01-08T04:49:15.234Z,49.03
2023-01-08T04:51:44.669Z,49.78
2023-01-08T04:54:12.476Z,50.25
2023-01-08T04:56:39.290Z,48.45
2023-01-08T04:59:06.060Z,38.28
2023-01-08T05:01:32.822Z,44.45
2023-01-08T05:04:01.935Z,44.72
2023-01-08T05:06:32.516Z,44.28
2023-01-08T05:08:59.573Z,38.70
2023-01-08T05:11:26.483Z,55.92
2023-01-08T05:13:53.938Z,46.80
2023-01-08T05:16:21.951Z,44.58
2023-01-08T05:18:48.701Z,50.60
2023-01-08T05:21:18.443Z,45.78
2023-01-08T05:23:54.540Z,49.53
2023-01-08T05:26:30.121Z,52.60
2023-01-08T05:29:09.666Z,46.20
2023-01-08T05:31:36.312Z,49.10
2023-01-08T05:34:04.037Z,54.85
2023-01-08T05:36:30.639Z,52.88
2023-01-08T05:39:07.294Z,39.25
2023-01-08T05:41:33.969Z,49.70
2023-01-08T05:44:00.840Z,56.28
2023-01-08T05:46:30.634Z,43.40
2023-01-08T05:48:57.976Z,57.75
2023-01-08T05:51:24.649Z,49.60
2023-01-08T05:53:51.270Z,54.92
2023-01-08T05:56:20.828Z,57.72
2023-01-08T05:58:47.597Z,51.28
2023-01-08T06:01:15.259Z,54.05
2023-01-08T06:03:42.213Z,57.08
2023-01-08T06:06:13.690Z,50.35
2023-01-08T06:08:40.405Z,39.17
2023-01-08T06:11:08.987Z,55.05
2023-01-08T06:13:36.121Z,50.72
2023-01-08T06:16:02.989Z,54.17
2023-01-08T06:18:32.724Z,57.78
2023-01-08T06:20:59.658Z,53.28
2023-01-08T06:23:30.377Z,57.10
2023-01-08T06:25:59.978Z,72.60
2023-01-08T06:28:27.074Z,60.15
2023-01-08T06:30:58.008Z,64.72
2023-01-08T06:33:24.949Z,67.18
2023-01-08T06:35:54.473Z,66.80
2023-01-08T06:38:21.324Z,68.53
2023-01-08T06:40:53.896Z,68.93
2023-01-08T06:43:22.614Z,71.28
2023-01-08T06:45:57.220Z,68.55
2023-01-08T06:48:24.608Z,74.57
2023-01-08T06:50:52.126Z,71.82
2023-01-08T06:53:19.244Z,73.38
2023-01-08T06:55:46.248Z,78.35
2023-01-08T06:58:13.471Z,78.90
2023-01-08T07:00:40.442Z,58.15
2023-01-08T07:03:08.326Z,68.72
2023-01-08T07:05:38.701Z,74.88
2023-01-08T07:08:08.394Z,72.25
2023-01-08T07:10:35.286Z,78.05
2023-01-08T07:13:02.004Z,73.13
2023-01-08T07:15:28.712Z,72.15
2023-01-08T07:17:55.722Z,77.97
2023-01-08T07:20:22.333Z,77.88
2023-01-08T07:22:49.019Z,75.55
2023-01-08T07:25:18.485Z,82.47
2023-01-08T07:27:45.108Z,73.93
2023-01-08T07:30:28.842Z,76.63
2023-01-08T07:33:02.371Z,79.85
2023-01-08T07:35:29.571Z,83.75
2023-01-08T07:37:57.220Z,76.43
2023-01-08T07:40:24.079Z,76.03
2023-01-08T07:43:03.257Z,82.00
2023-01-08T07:45:30.699Z,86.88
2023-01-08T07:47:58.171Z,84.90
2023-01-08T07:50:25.572Z,85.65
2023-01-08T07:52:55.021Z,78.45
2023-01-08T07:55:21.688Z,90.63
2023-01-08T07:57:48.450Z,87.57
2023-01-08T08:00:18.217Z,73.13
2023-01-08T08:02:45.225Z,84.10
2023-01-08T08:05:12.153Z,98.13
2023-01-08T08:07:38.772Z,87.90
2023-01-08T08:10:05.934Z,93.22
2023-01-08T08:12:41.379Z,89.53
2023-01-08T08:15:11.547Z,79.50
2023-01-08T08:17:38.237Z,80.97
2023-01-08T08:20:07.575Z,88.38
2023-01-08T08:22:34.215Z,88.35
2023-01-08T08:25:03.995Z,97.75
2023-01-08T08:27:33.863Z,97.60
2023-01-08T08:30:00.653Z,91.53
2023-01-08T08:32:27.392Z,92.05
2023-01-08T08:34:54.019Z,95.88
2023-01-08T08:37:20.802Z,95.00
2023-01-08T08:39:50.695Z,90.10
2023-01-08T08:42:23.723Z,97.68
2023-01-08T08:44:53.515Z,103.25
2023-01-08T08:47:22.412Z,97.78
2023-01-08T08:49:49.132Z,97.35
2023-01-08T08:52:17.166Z,105.00
2023-01-08T08:54:46.475Z,104.97
2023-01-08T08:57:15.079Z,102.40
2023-01-08T08:59:42.610Z,101.22
2023-01-08T09:02:11.229Z,107.00
2023-01-08T09:04:38.094Z,106.97
2023-01-08T09:07:07.470Z,98.40
2023-01-08T09:09:34.501Z,106.93
2023-01-08T09:12:01.172Z,106.25
2023-01-08T09:14:29.206Z,111.45
2023-01-08T09:16:56.111Z,102.40
2023-01-08T09:19:27.007Z,103.72
2023-01-08T09:21:58.923Z,97.57
2023-01-08T09:24:30.990Z,111.13
2023-01-08T09:26:58.111Z,110.65
2023-01-08T09:29:24.924Z,111.57
2023-01-08T09:31:54.808Z,114.13
2023-01-08T09:34:26.297Z,110.82
2023-01-08T09:36:54.492Z,112.70
2023-01-08T09:39:21.283Z,110.15
2023-01-08T09:41:48.460Z,103.70
2023-01-08T09:44:19.895Z,99.90
2023-01-08T09:46:51.067Z,118.05
2023-01-08T09:49:27.403Z,106.03
2023-01-08T09:51:56.485Z,99.03
2023-01-08T09:54:26.493Z,81.47
2023-01-08T09:57:02.303Z,92.85
2023-01-08T09:59:30.114Z,86.05
2023-01-08T10:01:59.235Z,95.47
2023-01-08T10:04:30.440Z,88.20
2023-01-08T10:07:02.473Z,87.83
2023-01-08T10:12:04.708Z,85.32
2023-01-08T10:14:35.269Z,90.40
2023-01-08T10:17:13.026Z,90.68
2023-01-08T10:19:39.740Z,91.35
2023-01-08T10:22:22.246Z,96.40
2023-01-08T10:24:48.907Z,87.20
2023-01-08T10:27:17.347Z,92.95
2023-01-08T10:29:45.539Z,102.22
2023-01-08T10:32:29.123Z,88.57
2023-01-08T10:34:58.564Z,92.55
2023-01-08T10:37:33.009Z,93.15
2023-01-08T10:40:08.300Z,89.30
2023-01-08T10:42:36.678Z,90.30
2023-01-08T10:45:07.914Z,89.32
2023-01-08T10:47:36.331Z,96.22
2023-01-08T10:50:05.835Z,90.45
2023-01-08T10:52:38.149Z,98.75
2023-01-08T10:55:41.456Z,92.47
2023-01-08T10:58:10.880Z,89.63
2023-01-08T11:00:38.276Z,95.30
2023-01-08T11:03:20.680Z,90.88
2023-01-08T11:05:49.888Z,89.63
2023-01-08T11:08:27.930Z,83.40
2023-01-08T11:10:59.559Z,80.78
2023-01-08T11:13:28.178Z,79.68
2023-01-08T11:16:30.917Z,81.65
2023-01-08T11:19:03.873Z,79.63
2023-01-08T11:21:32.675Z,79.68
2023-01-08T11:24:18.652Z,78.88
2023-01-08T11:26:59.668Z,79.65
2023-01-08T11:29:38.963Z,69.72
2023-01-08T11:32:32.929Z,69.00
2023-01-08T11:35:02.623Z,65.40
2023-01-08T11:37:35.606Z,58.08
2023-01-08T11:40:02.655Z,60.83
2023-01-08T11:42:46.585Z,66.93
2023-01-08T11:45:34.372Z,65.20
2023-01-08T11:48:08.971Z,68.13
2023-01-08T11:51:08.095Z,70.70
2023-01-08T11:54:20.331Z,65.95
2023-01-08T11:57:23.731Z,67.20
2023-01-08T12:00:14.398Z,58.80
2023-01-08T12:02:56.873Z,49.75
2023-01-08T12:05:26.167Z,59.50
2023-01-08T12:08:05.819Z,52.08
2023-01-08T12:10:35.199Z,48.65
2023-01-08T12:13:01.912Z,54.03
2023-01-08T12:16:02.355Z,55.17
2023-01-08T12:18:41.913Z,60.97
2023-01-08T12:21:52.229Z,51.25
2023-01-08T12:24:37.773Z,61.88
2023-01-08T12:27:25.899Z,60.60
2023-01-08T12:30:26.115Z,54.33
2023-01-08T12:33:30.418Z,61.80
2023-01-08T12:36:01.181Z,62.90
2023-01-08T12:38:36.144Z,63.88
2023-01-08T12:41:12.903Z,62.13
2023-01-08T12:44:00.873Z,58.30
2023-01-08T12:46:38.371Z,56.47
2023-01-08T12:49:06.951Z,56.70
2023-01-08T12:51:39.792Z,51.10
2023-01-08T12:54:28.186Z,55.92
2023-01-08T12:57:18.850Z,54.03
2023-01-08T12:59:51.097Z,44.17
2023-01-08T13:02:55.648Z,55.30
2023-01-08T13:05:22.961Z,52.72
2023-01-08T13:07:54.355Z,49.20
2023-01-08T13:10:35.346Z,53.15
2023-01-08T13:13:03.676Z,49.55
2023-01-08T13:15:33.814Z,44.97
2023-01-08T13:18:18.439Z,42.53
2023-01-08T13:21:01.630Z,51.45
2023-01-08T13:23:33.450Z,46.25
2023-01-08T13:26:03.617Z,42.88
2023-01-08T13:28:45.698Z,40.67
2023-01-08T13:31:21.408Z,50.45
2023-01-08T13:33:51.858Z,42.58
2023-01-08T13:36:24.567Z,50.72
2023-01-08T13:39:12.780Z,52.45
2023-01-08T13:42:04.465Z,48.15
2023-01-08T13:44:38.218Z,47.80
2023-01-08T13:47:18.784Z,50.15
2023-01-08T13:50:08.213Z,47.83
2023-01-08T13:52:43.266Z,45.45
2023-01-08T13:55:29.616Z,39.65
2023-01-08T13:58:03.358Z,37.58
2023-01-08T14:00:41.603Z,36.13
2023-01-08T14:03:27.609Z,35.33
2023-01-08T14:06:22.072Z,31.20
2023-01-08T14:09:03.701Z,39.45
2023-01-08T14:11:36.961Z,36.00
2023-01-08T14:14:03.658Z,44.63
2023-01-08T14:16:30.784Z,45.83
2023-01-08T14:19:05.064Z,42.33
2023-01-08T14:21:32.389Z,46.38
2023-01-08T14:24:11.951Z,47.25
2023-01-08T14:26:40.895Z,44.35
2023-01-08T14:29:15.552Z,46.45
2023-01-08T14:31:54.311Z,40.92
2023-01-08T14:34:42.362Z,38.40
2023-01-08T14:37:13.670Z,47.30
2023-01-08T14:39:40.811Z,40.88
2023-01-08T14:42:19.919Z,38.15
2023-01-08T14:44:46.626Z,40.08
2023-01-08T14:47:19.881Z,48.03
2023-01-08T14:50:18.118Z,38.40
2023-01-08T14:52:44.969Z,36.90
2023-01-08T14:55:15.731Z,50.40
2023-01-08T14:57:54.209Z,50.17
2023-01-08T15:00:29.381Z,48.40
2023-01-08T15:02:57.362Z,51.17
2023-01-08T15:05:33.779Z,51.25
2023-01-08T15:08:21.641Z,40.08
2023-01-08T15:11:22.889Z,52.85
2023-01-08T15:13:51.271Z,45.17
2023-01-08T15:16:41.346Z,58.22
2023-01-08T15:19:20.059Z,47.38
2023-01-08T15:21:51.016Z,69.30
2023-01-08T15:24:25.272Z,44.45
2023-01-08T15:26:53.111Z,56.40
2023-01-08T15:29:29.872Z,48.03
2023-01-08T15:31:56.535Z,59.42
2023-01-08T15:34:23.401Z,46.63
2023-01-08T15:36:50.182Z,59.15
2023-01-08T15:39:17.367Z,57.33
2023-01-08T15:41:46.521Z,73.03
2023-01-08T15:44:19.167Z,56.97
2023-01-08T15:46:52.066Z,57.20
2023-01-08T15:49:18.979Z,53.35
2023-01-08T15:51:51.396Z,79.40
2023-01-08T15:54:27.945Z,70.50
2023-01-08T15:56:59.965Z,68.18
2023-01-08T15:59:33.111Z,73.25
2023-01-08T16:02:03.058Z,71.15
2023-01-08T16:04:33.544Z,84.10
2023-01-08T16:07:05.774Z,67.15
2023-01-08T16:09:32.605Z,81.38
2023-01-08T16:11:59.257Z,76.07
2023-01-08T16:14:27.439Z,59.72
2023-01-08T16:16:54.143Z,63.75
2023-01-08T16:19:23.390Z,77.40
2023-01-08T16:21:51.087Z,66.57
2023-01-08T16:24:17.800Z,82.63
2023-01-08T16:26:44.659Z,92.70
2023-01-08T16:29:11.400Z,61.83
2023-01-08T16:31:44.989Z,80.75
2023-01-08T16:34:12.093Z,74.05
2023-01-08T16:36:39.764Z,68.82
2023-01-08T16:39:07.239Z,73.63
2023-01-08T16:41:35.933Z,89.07
2023-01-08T16:44:02.777Z,82.13
2023-01-08T16:46:29.428Z,81.68
2023-01-08T16:48:56.382Z,79.57
2023-01-08T16:51:23.147Z,84.50
2023-01-08T16:53:52.264Z,87.25
2023-01-08T16:56:18.863Z,92.03
2023-01-08T16:58:45.435Z,82.68
2023-01-08T17:01:12.120Z,94.35
2023-01-08T17:03:39.292Z,101.40
2023-01-08T17:06:08.148Z,94.95
2023-01-08T17:08:34.871Z,95.35
2023-01-08T17:11:07.195Z,85.63
2023-01-08T17:13:36.704Z,93.10
2023-01-08T17:16:05.893Z,87.65
2023-01-08T17:18:37.925Z,73.25
2023-01-08T17:23:40.240Z,84.70
2023-01-08T17:26:14.310Z,93.00
2023-01-08T17:28:41.256Z,83.57
2023-01-08T17:31:09.755Z,94.40
2023-01-08T17:33:37.327Z,89.13
2023-01-08T17:36:36.463Z,103.35
2023-01-08T17:39:06.133Z,101.57
2023-01-08T17:41:34.598Z,106.30
2023-01-08T17:44:07.700Z,108.32
2023-01-08T17:46:36.017Z,101.85
2023-01-08T17:49:03.713Z,117.50
2023-01-08T17:51:32.979Z,104.38
2023-01-08T17:54:00.490Z,102.40
2023-01-08T17:56:28.001Z,106.53
2023-01-08T17:59:02.242Z,107.22
2023-01-08T18:01:29.095Z,107.65
2023-01-08T18:03:55.944Z,104.30
2023-01-08T18:06:22.630Z,103.63
2023-01-08T18:08:49.387Z,98.85
2023-01-08T18:11:16.061Z,108.50
2023-01-08T18:13:45.641Z,98.65
2023-01-08T18:16:14.444Z,95.93
2023-01-08T18:18:41.117Z,130.38
2023-01-08T18:21:08.474Z,121.55
2023-01-08T18:23:35.233Z,113.43
2023-01-08T18:26:12.148Z,145.80
2023-01-08T18:28:39.740Z,137.23
2023-01-08T18:31:08.123Z,152.57
2023-01-08T18:33:35.876Z,149.63
2023-01-08T18:36:07.611Z,132.27
2023-01-08T18:38:34.229Z,125.50
2023-01-08T18:41:01.160Z,133.95
2023-01-08T18:43:28.191Z,133.95
2023-01-08T18:46:08.084Z,127.57
2023-01-08T18:48:35.741Z,136.10
2023-01-08T18:51:05.566Z,154.48
2023-01-08T18:53:33.666Z,142.73
2023-01-08T18:56:02.351Z,169.18
2023-01-08T18:58:31.796Z,170.75
2023-01-08T19:01:07.689Z,143.57
2023-01-08T19:03:34.444Z,158.25
2023-01-08T19:06:01.099Z,147.70
2023-01-08T19:08:30.547Z,146.48
2023-01-08T19:11:04.967Z,158.80
2023-01-08T19:13:31.575Z,198.02
2023-01-08T19:15:58.439Z,169.57
2023-01-08T19:18:25.537Z,166.13
2023-01-08T19:21:00.042Z,139.38
2023-01-08T19:23:29.869Z,157.55
2023-01-08T19:25:57.861Z,168.60
2023-01-08T19:28:24.541Z,157.48
2023-01-08T19:31:07.031Z,146.40
2023-01-08T19:33:36.099Z,151.73
2023-01-08T19:36:04.712Z,138.52
2023-01-08T19:38:31.489Z,101.90
2023-01-08T19:41:01.587Z,121.00
2023-01-08T19:43:31.362Z,121.93
2023-01-08T19:46:05.199Z,83.20
2023-01-08T19:48:32.931Z,92.40
2023-01-08T19:51:00.078Z,94.57
2023-01-08T19:53:29.808Z,94.80
2023-01-08T19:55:56.714Z,112.93
2023-01-08T19:58:23.304Z,105.53
2023-01-08T20:00:50.223Z,102.50
2023-01-08T20:03:16.998Z,105.32
2023-01-08T20:05:43.771Z,89.30
2023-01-08T20:08:13.007Z,102.55
2023-01-08T20:10:39.673Z,105.70
2023-01-08T20:13:06.376Z,107.68
2023-01-08T20:15:33.066Z,118.45
2023-01-08T20:18:03.169Z,106.35
2023-01-08T20:20:32.132Z,113.75
2023-01-08T20:23:01.655Z,108.78
2023-01-08T20:25:28.829Z,102.30
2023-01-08T20:27:55.818Z,108.82
2023-01-08T20:30:25.070Z,109.25
2023-01-08T20:32:51.852Z,106.70
2023-01-08T20:35:18.634Z,95.53
2023-01-08T20:37:46.821Z,95.25
2023-01-08T20:40:13.931Z,104.47
2023-01-08T20:42:40.585Z,105.68
2023-01-08T20:45:18.945Z,100.68
2023-01-08T20:47:50.470Z,81.82
2023-01-08T20:50:25.956Z,91.38
2023-01-08T20:52:52.705Z,96.20
2023-01-08T20:55:19.608Z,98.43
2023-01-08T20:57:47.248Z,95.00
2023-01-08T21:00:20.642Z,75.82
2023-01-08T21:02:48.100Z,86.32
2023-01-08T21:05:22.317Z,96.05
2023-01-08T21:07:55.095Z,66.05
2023-01-08T21:10:24.197Z,87.28
2023-01-08T21:12:52.595Z,82.28
2023-01-08T21:15:22.276Z,90.00
2023-01-08T21:17:49.467Z,91.78
2023-01-08T21:20:16.783Z,75.00
2023-01-08T21:22:43.879Z,88.20
2023-01-08T21:25:12.107Z,88.43
2023-01-08T21:27:38.794Z,85.85
2023-01-08T21:30:06.332Z,83.07
2023-01-08T21:32:35.837Z,71.03
2023-01-08T21:35:02.459Z,89.10
2023-01-08T21:37:32.161Z,87.50
2023-01-08T21:40:01.537Z,85.80
2023-01-08T21:42:28.403Z,76.20
2023-01-08T21:44:55.051Z,85.07
2023-01-08T21:47:23.825Z,65.55
2023-01-08T21:49:57.883Z,75.18
2023-01-08T21:52:28.196Z,72.07
2023-01-08T21:54:59.539Z,61.25
2023-01-08T21:57:27.185Z,60.13
2023-01-08T21:59:54.444Z,69.63
2023-01-08T22:02:23.014Z,68.03
2023-01-08T22:04:49.934Z,63.50
2023-01-08T22:07:16.941Z,66.68
2023-01-08T22:09:43.602Z,64.03
2023-01-08T22:12:10.180Z,56.50
2023-01-08T22:14:36.896Z,58.83
2023-01-08T22:17:06.212Z,53.22
2023-01-08T22:19:32.761Z,56.47
2023-01-08T22:21:59.383Z,57.85
2023-01-08T22:24:30.211Z,60.50
2023-01-08T22:26:59.133Z,56.75
2023-01-08T22:29:26.009Z,64.13
2023-01-08T22:31:52.920Z,72.47
2023-01-08T22:34:20.888Z,69.68
2023-01-08T22:36:53.205Z,77.20
2023-01-08T22:39:19.923Z,71.40
2023-01-08T22:41:49.519Z,73.88
2023-01-08T22:44:16.179Z,73.38
2023-01-08T22:46:43.046Z,76.68
2023-01-08T22:49:13.824Z,75.47
2023-01-08T22:51:41.333Z,75.85
2023-01-08T22:54:08.091Z,83.97
2023-01-08T22:56:34.817Z,82.88
2023-01-08T22:59:04.120Z,83.97
2023-01-08T23:01:35.221Z,90.57
2023-01-08T23:04:02.490Z,92.63
2023-01-08T23:06:30.847Z,84.90
2023-01-08T23:08:58.428Z,73.15
2023-01-08T23:11:28.399Z,77.78
2023-01-08T23:13:55.668Z,58.05
2023-01-08T23:16:24.948Z,55.65
2023-01-08T23:18:53.552Z,64.22
2023-01-08T23:21:23.311Z,65.55
2023-01-08T23:23:50.670Z,53.95
2023-01-08T23:26:23.336Z,64.90
2023-01-08T23:28:53.510Z,48.78
2023-01-08T23:31:23.412Z,62.60
2023-01-08T23:33:55.708Z,62.80
2023-01-08T23:36:23.095Z,57.38
2023-01-08T23:38:56.348Z,48.92
2023-01-08T23:41:28.260Z,56.08
2023-01-08T23:43:54.969Z,44.40
2023-01-08T23:46:24.768Z,51.67
2023-01-08T23:48:53.974Z,46.35
2023-01-08T23:51:24.494Z,47.95
2023-01-08T23:54:02.940Z,55.53
2023-01-08T23:56:29.685Z,69.65
2023-01-08T23:58:57.302Z,71.60
